createdAt,value
2023-03-26T00:00:59.299Z,0
2023-03-26T00:03:59.430Z,0.3333333333333333
2023-03-26T00:06:58.414Z,0
2023-03-26T00:09:58.886Z,0
2023-03-26T00:12:58.943Z,0
2023-03-26T00:15:58.796Z,0
2023-03-26T00:18:59.581Z,0
2023-03-26T00:21:57.731Z,0
2023-03-26T00:24:59.031Z,0.3333333333333333
2023-03-26T00:27:58.720Z,0
2023-03-26T00:30:58.411Z,0
2023-03-26T00:33:59.135Z,0.6666666666666666
2023-03-26T00:36:58.873Z,0
2023-03-26T00:40:00.713Z,0
2023-03-26T00:42:59.138Z,0
2023-03-26T00:45:58.466Z,0
2023-03-26T00:48:58.345Z,0
2023-03-26T00:51:58.468Z,0.3333333333333333
2023-03-26T00:54:59.431Z,0
2023-03-26T00:57:59.244Z,0
2023-03-26T01:00:58.913Z,0.6666666666666666
2023-03-26T01:04:15.356Z,0.3333333333333333
2023-03-26T01:06:58.388Z,0
2023-03-26T01:09:58.903Z,0
2023-03-26T01:12:58.469Z,0
2023-03-26T01:15:59.003Z,0
2023-03-26T01:18:59.116Z,0
2023-03-26T01:21:59.687Z,0
2023-03-26T01:24:59.146Z,0
2023-03-26T01:27:59.449Z,0
2023-03-26T01:30:59.102Z,0
2023-03-26T01:33:57.870Z,0
2023-03-26T01:36:59.811Z,0
2023-03-26T01:39:57.403Z,0
2023-03-26T01:42:58.785Z,0
2023-03-26T01:45:58.440Z,0
2023-03-26T01:48:58.126Z,0
2023-03-26T01:51:58.555Z,0
2023-03-26T01:54:58.951Z,0
2023-03-26T01:57:58.921Z,0.3333333333333333
2023-03-26T02:00:58.359Z,0
2023-03-26T02:04:00.127Z,0
2023-03-26T02:06:59.261Z,0
2023-03-26T02:09:58.110Z,0
2023-03-26T02:12:58.256Z,0
2023-03-26T02:15:59.129Z,0
2023-03-26T02:18:58.503Z,0
2023-03-26T02:21:58.908Z,0.6666666666666666
2023-03-26T02:24:58.188Z,0
2023-03-26T02:27:58.513Z,0
2023-03-26T02:30:59.553Z,0.6666666666666666
2023-03-26T02:33:57.354Z,0
2023-03-26T02:36:58.379Z,0
2023-03-26T02:39:58.229Z,0.3333333333333333
2023-03-26T02:42:58.829Z,0
2023-03-26T02:45:58.239Z,0
2023-03-26T02:48:58.308Z,0
2023-03-26T02:51:59.678Z,0
2023-03-26T02:54:58.162Z,0
2023-03-26T02:57:59.203Z,0
2023-03-26T03:00:59.172Z,0
2023-03-26T03:03:57.613Z,0
2023-03-26T03:06:58.760Z,0
2023-03-26T03:10:00.381Z,0
2023-03-26T03:12:58.893Z,0
2023-03-26T03:15:59.417Z,0.3333333333333333
2023-03-26T03:18:59.461Z,0
2023-03-26T03:21:58.570Z,0
2023-03-26T03:24:58.651Z,0
2023-03-26T03:27:57.374Z,0
2023-03-26T03:30:58.438Z,0
2023-03-26T03:33:59.217Z,0
2023-03-26T03:36:58.199Z,0
2023-03-26T03:39:57.929Z,0
2023-03-26T03:42:59.279Z,0
2023-03-26T03:45:59.160Z,0
2023-03-26T03:48:58.262Z,0
2023-03-26T03:51:59.573Z,0
2023-03-26T03:54:58.302Z,0
2023-03-26T03:57:58.659Z,0.6666666666666666
2023-03-26T04:01:00.149Z,0
2023-03-26T04:03:59.267Z,0
2023-03-26T04:06:59.216Z,0
2023-03-26T04:09:59.143Z,0.6666666666666666
2023-03-26T04:12:59.041Z,0
2023-03-26T04:15:59.388Z,0
2023-03-26T04:18:58.586Z,0
2023-03-26T04:21:58.923Z,0
2023-03-26T04:24:57.793Z,0
2023-03-26T04:27:58.580Z,0
2023-03-26T04:30:59.403Z,0
2023-03-26T04:33:58.940Z,0
2023-03-26T04:36:58.166Z,0.3333333333333333
2023-03-26T04:39:58.295Z,0
2023-03-26T04:42:59.006Z,0
2023-03-26T04:45:58.709Z,0
2023-03-26T04:48:57.884Z,0.6666666666666666
2023-03-26T04:51:59.622Z,0
2023-03-26T04:54:59.837Z,1
2023-03-26T04:57:58.434Z,1
2023-03-26T05:00:59.312Z,2
2023-03-26T05:03:59.811Z,3
2023-03-26T05:06:58.729Z,6
2023-03-26T05:09:58.222Z,8.666666666666666
2023-03-26T05:12:57.731Z,14.666666666666666
2023-03-26T05:15:59.358Z,18.333333333333332
2023-03-26T05:18:58.287Z,22
2023-03-26T05:21:59.041Z,28
2023-03-26T05:24:59.623Z,35.333333333333336
2023-03-26T05:27:58.618Z,38
2023-03-26T05:30:59.565Z,40.666666666666664
2023-03-26T05:33:58.636Z,41.666666666666664
2023-03-26T05:36:59.485Z,37
2023-03-26T05:39:58.273Z,37.666666666666664
2023-03-26T05:42:58.688Z,47.333333333333336
2023-03-26T05:45:59.697Z,54
2023-03-26T05:48:58.702Z,55.666666666666664
2023-03-26T05:52:00.024Z,48.333333333333336
2023-03-26T05:54:59.582Z,41.666666666666664
2023-03-26T05:57:58.058Z,40
2023-03-26T06:00:59.646Z,44
2023-03-26T06:03:57.970Z,59
2023-03-26T06:06:59.102Z,71.33333333333333
2023-03-26T06:09:59.338Z,88.33333333333333
2023-03-26T06:12:59.164Z,111.66666666666667
2023-03-26T06:15:58.462Z,145
2023-03-26T06:18:59.977Z,174.66666666666666
2023-03-26T06:22:00.509Z,218.33333333333334
2023-03-26T06:24:59.151Z,231.66666666666666
2023-03-26T06:27:57.208Z,203
2023-03-26T06:30:59.332Z,180.66666666666666
2023-03-26T06:33:58.286Z,179.66666666666666
2023-03-26T06:36:59.374Z,146.33333333333334
2023-03-26T06:39:58.944Z,127.33333333333333
2023-03-26T06:43:08.301Z,143.66666666666666
2023-03-26T06:45:58.840Z,162.66666666666666
2023-03-26T06:48:58.663Z,171
2023-03-26T06:51:59.164Z,177
2023-03-26T06:54:58.227Z,158.66666666666666
2023-03-26T06:57:59.293Z,140.66666666666666
2023-03-26T07:00:59.723Z,118.66666666666667
2023-03-26T07:04:00.367Z,114.33333333333333
2023-03-26T07:06:59.413Z,120
2023-03-26T07:10:00.169Z,140
2023-03-26T07:12:58.818Z,151
2023-03-26T07:15:58.612Z,140.33333333333334
2023-03-26T07:18:57.810Z,121.66666666666667
2023-03-26T07:21:58.900Z,121
2023-03-26T07:24:58.489Z,158.33333333333334
2023-03-26T07:27:58.261Z,204.66666666666666
2023-03-26T07:30:59.262Z,219.33333333333334
2023-03-26T07:34:00.562Z,198.33333333333334
2023-03-26T07:36:58.825Z,223.66666666666666
2023-03-26T07:39:59.004Z,234.33333333333334
2023-03-26T07:42:59.449Z,196.66666666666666
2023-03-26T07:46:00.527Z,181.66666666666666
2023-03-26T07:48:59.779Z,167.33333333333334
2023-03-26T07:51:59.045Z,191.33333333333334
2023-03-26T07:54:59.590Z,210
2023-03-26T07:57:58.358Z,259.6666666666667
2023-03-26T08:00:59.971Z,240.66666666666666
2023-03-26T08:03:58.616Z,235.66666666666666
2023-03-26T08:06:58.343Z,256.6666666666667
2023-03-26T08:09:59.048Z,268
2023-03-26T08:13:00.474Z,274
2023-03-26T08:15:59.092Z,295
2023-03-26T08:18:58.160Z,320.6666666666667
2023-03-26T08:21:58.812Z,319.3333333333333
2023-03-26T08:24:58.365Z,312.3333333333333
2023-03-26T08:27:59.407Z,367.6666666666667
2023-03-26T08:30:59.320Z,461.6666666666667
2023-03-26T08:33:58.276Z,311.6666666666667
2023-03-26T08:36:58.919Z,225
2023-03-26T08:39:59.252Z,198.66666666666666
2023-03-26T08:42:59.802Z,231
2023-03-26T08:45:59.070Z,325
2023-03-26T08:49:00.109Z,329.3333333333333
2023-03-26T08:51:58.663Z,247
2023-03-26T08:54:58.819Z,220.66666666666666
2023-03-26T08:57:57.927Z,261
2023-03-26T09:00:59.196Z,235.66666666666666
2023-03-26T09:04:00.493Z,155.33333333333334
2023-03-26T09:06:59.300Z,168
2023-03-26T09:09:59.629Z,194.33333333333334
2023-03-26T09:12:59.831Z,257.6666666666667
2023-03-26T09:15:59.610Z,248.33333333333334
2023-03-26T09:18:59.141Z,224.33333333333334
2023-03-26T09:21:58.181Z,208
2023-03-26T09:24:59.246Z,274.6666666666667
2023-03-26T09:27:58.432Z,298.6666666666667
2023-03-26T09:30:59.406Z,293.3333333333333
2023-03-26T09:33:59.813Z,305
2023-03-26T09:36:58.809Z,397.3333333333333
2023-03-26T09:39:59.420Z,347.6666666666667
2023-03-26T09:42:57.808Z,337.6666666666667
2023-03-26T09:45:58.553Z,374.6666666666667
2023-03-26T09:48:58.632Z,374
2023-03-26T09:51:59.822Z,344
2023-03-26T09:54:58.915Z,449
2023-03-26T09:57:59.191Z,423.3333333333333
2023-03-26T10:00:58.747Z,383.6666666666667
2023-03-26T10:03:58.975Z,355
2023-03-26T10:06:58.626Z,385.3333333333333
2023-03-26T10:09:57.347Z,519
2023-03-26T10:13:11.665Z,670.3333333333334
2023-03-26T10:15:58.549Z,870.3333333333334
2023-03-26T10:18:59.000Z,934
2023-03-26T10:21:58.563Z,952.3333333333334
2023-03-26T10:24:58.626Z,942
2023-03-26T10:28:02.043Z,935.3333333333334
2023-03-26T10:30:59.189Z,924
2023-03-26T10:33:59.289Z,934
2023-03-26T10:36:58.656Z,932
2023-03-26T10:39:58.682Z,949.3333333333334
2023-03-26T10:42:58.343Z,949.6666666666666
2023-03-26T10:45:59.602Z,936
2023-03-26T10:48:58.296Z,875.6666666666666
2023-03-26T10:51:58.495Z,944
2023-03-26T10:54:59.286Z,890.6666666666666
2023-03-26T10:57:58.812Z,543.6666666666666
2023-03-26T11:00:59.541Z,515
2023-03-26T11:04:17.885Z,524.3333333333334
2023-03-26T11:06:58.984Z,674.6666666666666
2023-03-26T11:10:00.102Z,832.3333333333334
2023-03-26T11:12:58.233Z,631
2023-03-26T11:15:58.714Z,581.3333333333334
2023-03-26T11:18:59.000Z,730.3333333333334
2023-03-26T11:21:58.592Z,620.6666666666666
2023-03-26T11:24:59.216Z,584.3333333333334
2023-03-26T11:27:59.671Z,657
2023-03-26T11:30:57.949Z,701.6666666666666
2023-03-26T11:33:59.734Z,701
2023-03-26T11:37:00.286Z,702
2023-03-26T11:39:59.311Z,569.6666666666666
2023-03-26T11:42:58.379Z,362.3333333333333
2023-03-26T11:45:58.680Z,257
2023-03-26T11:48:58.222Z,319.6666666666667
2023-03-26T11:51:59.640Z,801.6666666666666
2023-03-26T11:54:59.305Z,722.6666666666666
2023-03-26T11:57:58.449Z,687.3333333333334
2023-03-26T12:00:59.378Z,454.6666666666667
2023-03-26T12:03:59.250Z,531.3333333333334
2023-03-26T12:06:58.153Z,477
2023-03-26T12:09:58.442Z,541
2023-03-26T12:12:59.468Z,466.3333333333333
2023-03-26T12:15:59.060Z,609.3333333333334
2023-03-26T12:18:58.276Z,513.3333333333334
2023-03-26T12:21:58.781Z,473.6666666666667
2023-03-26T12:24:59.330Z,450.3333333333333
2023-03-26T12:27:58.982Z,460.6666666666667
2023-03-26T12:30:59.904Z,529.3333333333334
2023-03-26T12:33:59.523Z,479
2023-03-26T12:36:58.477Z,463.6666666666667
2023-03-26T12:40:08.609Z,438.6666666666667
2023-03-26T12:44:46.499Z,502.3333333333333
2023-03-26T12:46:20.713Z,545.6666666666666
2023-03-26T12:48:57.520Z,505
2023-03-26T12:51:59.465Z,666
2023-03-26T12:54:59.053Z,798.3333333333334
2023-03-26T12:58:01.088Z,915.6666666666666
2023-03-26T13:01:00.264Z,729
2023-03-26T13:03:59.256Z,479
2023-03-26T13:07:01.563Z,470
2023-03-26T13:09:59.589Z,237.66666666666666
2023-03-26T13:12:58.781Z,377
2023-03-26T13:16:00.296Z,632
2023-03-26T13:18:57.591Z,581
2023-03-26T13:21:58.908Z,365
2023-03-26T13:24:59.982Z,260.6666666666667
2023-03-26T13:27:59.243Z,313.6666666666667
2023-03-26T13:30:59.138Z,460.3333333333333
2023-03-26T13:33:58.740Z,521.3333333333334
2023-03-26T13:37:00.939Z,750.3333333333334
2023-03-26T13:39:58.717Z,791.6666666666666
2023-03-26T13:42:58.210Z,492
2023-03-26T13:45:57.954Z,300.3333333333333
2023-03-26T13:48:58.793Z,373.6666666666667
2023-03-26T13:51:59.224Z,365
2023-03-26T13:54:58.156Z,356
2023-03-26T13:57:59.059Z,354.3333333333333
2023-03-26T14:00:59.516Z,280.6666666666667
2023-03-26T14:03:59.709Z,371.3333333333333
2023-03-26T14:06:59.435Z,455
2023-03-26T14:09:58.217Z,585
2023-03-26T14:12:58.809Z,444.3333333333333
2023-03-26T14:15:59.381Z,415
2023-03-26T14:18:57.982Z,408.6666666666667
2023-03-26T14:22:00.312Z,469.6666666666667
2023-03-26T14:24:58.712Z,572.3333333333334
2023-03-26T14:27:59.563Z,499
2023-03-26T14:31:00.039Z,466.3333333333333
2023-03-26T14:33:58.152Z,418
2023-03-26T14:36:58.271Z,403.6666666666667
2023-03-26T14:39:59.294Z,395
2023-03-26T14:42:58.992Z,375
2023-03-26T14:45:58.255Z,385.6666666666667
2023-03-26T14:48:58.678Z,387.3333333333333
2023-03-26T14:51:59.162Z,342
2023-03-26T14:54:58.757Z,338
2023-03-26T14:57:58.812Z,359
2023-03-26T15:01:03.895Z,352.3333333333333
2023-03-26T15:03:58.484Z,354
2023-03-26T15:06:58.977Z,362.3333333333333
2023-03-26T15:09:59.413Z,302
2023-03-26T15:12:57.401Z,377
2023-03-26T15:15:58.631Z,393
2023-03-26T15:18:58.723Z,352.6666666666667
2023-03-26T15:21:59.100Z,311
2023-03-26T15:24:59.093Z,297.3333333333333
2023-03-26T15:27:58.181Z,264.6666666666667
2023-03-26T15:30:59.214Z,232
2023-03-26T15:33:59.493Z,239
2023-03-26T15:36:59.317Z,272
2023-03-26T15:40:00.559Z,292
2023-03-26T15:42:58.556Z,283
2023-03-26T15:45:59.768Z,281
2023-03-26T15:48:59.273Z,294
2023-03-26T15:51:59.902Z,271.6666666666667
2023-03-26T15:54:59.675Z,177
2023-03-26T15:57:58.934Z,66.66666666666667
2023-03-26T16:01:00.369Z,25.666666666666668
2023-03-26T16:03:58.438Z,22.333333333333332
2023-03-26T16:06:57.939Z,19
2023-03-26T16:10:03.210Z,23.333333333333332
2023-03-26T16:12:58.657Z,33
2023-03-26T16:15:59.575Z,41.666666666666664
2023-03-26T16:18:59.309Z,44.333333333333336
2023-03-26T16:21:59.137Z,53.666666666666664
2023-03-26T16:24:58.653Z,83.66666666666667
2023-03-26T16:27:59.509Z,123.66666666666667
2023-03-26T16:30:58.531Z,157
2023-03-26T16:33:59.328Z,175.66666666666666
2023-03-26T16:36:59.804Z,195
2023-03-26T16:39:59.554Z,196.66666666666666
2023-03-26T16:42:58.121Z,175.33333333333334
2023-03-26T16:45:59.026Z,150.66666666666666
2023-03-26T16:48:57.657Z,129
2023-03-26T16:51:58.680Z,106.66666666666667
2023-03-26T16:54:58.574Z,85
2023-03-26T16:57:59.678Z,64
2023-03-26T17:01:00.021Z,48.666666666666664
2023-03-26T17:03:58.770Z,44
2023-03-26T17:06:58.298Z,42.333333333333336
2023-03-26T17:09:59.062Z,40
2023-03-26T17:12:59.574Z,40.333333333333336
2023-03-26T17:15:58.714Z,39
2023-03-26T17:18:59.338Z,41.333333333333336
2023-03-26T17:21:58.975Z,41.666666666666664
2023-03-26T17:24:59.809Z,40.666666666666664
2023-03-26T17:27:58.451Z,33.666666666666664
2023-03-26T17:30:58.353Z,21.333333333333332
2023-03-26T17:33:58.911Z,15.666666666666666
2023-03-26T17:36:59.425Z,9.666666666666666
2023-03-26T17:39:58.074Z,7
2023-03-26T17:42:58.845Z,5
2023-03-26T17:46:02.827Z,3.3333333333333335
2023-03-26T17:48:59.075Z,2.3333333333333335
2023-03-26T17:51:58.475Z,1.6666666666666667
2023-03-26T17:54:57.873Z,0
2023-03-26T17:57:58.447Z,0
2023-03-26T18:00:58.554Z,0
2023-03-26T18:03:59.175Z,0
2023-03-26T18:06:57.586Z,0
2023-03-26T18:09:59.503Z,0
2023-03-26T18:12:58.734Z,0
2023-03-26T18:15:59.896Z,0
2023-03-26T18:18:59.285Z,0
2023-03-26T18:21:59.287Z,0
2023-03-26T18:24:59.850Z,0.3333333333333333
2023-03-26T18:27:58.037Z,0
2023-03-26T18:30:58.879Z,0
2023-03-26T18:33:59.942Z,1
2023-03-26T18:36:59.197Z,0
2023-03-26T18:39:59.551Z,0
2023-03-26T18:42:58.560Z,0
2023-03-26T18:45:58.991Z,0
2023-03-26T18:48:59.507Z,0
2023-03-26T18:51:58.005Z,0
2023-03-26T18:54:58.967Z,0
2023-03-26T18:57:58.463Z,0
2023-03-26T19:01:27.408Z,0
2023-03-26T19:03:58.207Z,0
2023-03-26T19:06:59.097Z,0
2023-03-26T19:09:59.395Z,0
2023-03-26T19:12:58.129Z,0
2023-03-26T19:15:59.141Z,0
2023-03-26T19:18:58.695Z,0
2023-03-26T19:21:59.661Z,0
2023-03-26T19:24:59.387Z,0
2023-03-26T19:27:58.454Z,0
2023-03-26T19:30:59.409Z,0.3333333333333333
2023-03-26T19:33:59.318Z,0
2023-03-26T19:36:59.847Z,0
2023-03-26T19:39:58.654Z,0
2023-03-26T19:42:58.438Z,0
2023-03-26T19:46:01.329Z,0
2023-03-26T19:48:58.245Z,0
2023-03-26T19:51:58.997Z,0
2023-03-26T19:54:59.173Z,0
2023-03-26T19:57:59.553Z,1
2023-03-26T20:00:59.808Z,0.3333333333333333
2023-03-26T20:03:59.089Z,0
2023-03-26T20:06:58.353Z,0
2023-03-26T20:09:57.935Z,0
2023-03-26T20:12:58.807Z,0.3333333333333333
2023-03-26T20:16:05.852Z,0.3333333333333333
2023-03-26T20:18:58.852Z,0
2023-03-26T20:21:59.350Z,0
2023-03-26T20:24:58.453Z,0
2023-03-26T20:27:58.931Z,0
2023-03-26T20:30:59.745Z,0
2023-03-26T20:33:58.089Z,0
2023-03-26T20:37:01.238Z,0.3333333333333333
2023-03-26T20:39:59.435Z,0
2023-03-26T20:42:59.876Z,0
2023-03-26T20:45:59.823Z,0
2023-03-26T20:48:59.198Z,0
2023-03-26T20:51:59.213Z,0
2023-03-26T20:54:59.912Z,0
2023-03-26T20:57:58.112Z,0
2023-03-26T21:00:58.749Z,0
2023-03-26T21:03:58.313Z,0
2023-03-26T21:09:58.683Z,0
2023-03-26T21:12:58.908Z,0.3333333333333333
2023-03-26T21:16:01.016Z,0
2023-03-26T21:18:57.976Z,0
2023-03-26T21:21:59.153Z,0
2023-03-26T21:24:58.479Z,0
2023-03-26T21:27:59.215Z,0
2023-03-26T21:30:59.655Z,0
2023-03-26T21:33:58.846Z,0
2023-03-26T21:36:58.096Z,0
2023-03-26T21:39:59.357Z,0
2023-03-26T21:42:58.959Z,0
2023-03-26T21:45:58.200Z,0
2023-03-26T21:48:58.534Z,0
2023-03-26T21:51:58.900Z,0
2023-03-26T21:54:57.904Z,0.3333333333333333
2023-03-26T21:57:58.416Z,0
2023-03-26T22:00:59.401Z,0
2023-03-26T22:03:59.793Z,0.6666666666666666
2023-03-26T22:06:58.045Z,0
2023-03-26T22:09:58.632Z,0.3333333333333333
2023-03-26T22:12:58.654Z,0
2023-03-26T22:15:59.053Z,0
2023-03-26T22:18:58.374Z,0
2023-03-26T22:21:58.985Z,0
2023-03-26T22:24:57.976Z,0
2023-03-26T22:27:59.292Z,0
2023-03-26T22:30:59.440Z,0
2023-03-26T22:33:59.200Z,0
2023-03-26T22:36:59.359Z,0
2023-03-26T22:39:58.703Z,0
2023-03-26T22:42:59.129Z,0
2023-03-26T22:45:59.272Z,0
2023-03-26T22:48:59.453Z,0.3333333333333333
2023-03-26T22:51:58.532Z,0
2023-03-26T22:54:59.265Z,0
2023-03-26T22:57:59.704Z,0
2023-03-26T23:01:00.207Z,0
2023-03-26T23:03:59.169Z,0
2023-03-26T23:06:59.445Z,0
2023-03-26T23:09:58.582Z,0
2023-03-26T23:12:59.187Z,0
2023-03-26T23:15:58.980Z,0
2023-03-26T23:18:58.035Z,0
2023-03-26T23:21:58.504Z,0
2023-03-26T23:24:59.228Z,0
2023-03-26T23:27:58.008Z,0
2023-03-26T23:30:58.890Z,0
2023-03-26T23:33:59.690Z,0
2023-03-26T23:36:59.344Z,0.3333333333333333
2023-03-26T23:39:58.828Z,0
2023-03-26T23:42:58.932Z,0
2023-03-26T23:45:57.620Z,0
2023-03-26T23:48:58.225Z,0.3333333333333333
2023-03-26T23:51:59.296Z,0
2023-03-26T23:54:59.162Z,0
2023-03-26T23:57:59.304Z,0
